createdAt,value
2022-08-14T00:00:18.412Z,25.47
2022-08-14T00:01:23.791Z,25.50
2022-08-14T00:02:20.143Z,25.53
2022-08-14T00:03:19.306Z,25.53
2022-08-14T00:04:34.877Z,25.44
2022-08-14T00:05:20.906Z,25.44
2022-08-14T00:06:25.930Z,25.42
2022-08-14T00:07:21.488Z,25.37
2022-08-14T00:08:45.175Z,25.37
2022-08-14T00:09:22.109Z,25.35
2022-08-14T00:10:53.030Z,25.32
2022-08-14T00:11:22.668Z,25.34
2022-08-14T00:12:23.733Z,25.30
2022-08-14T00:13:22.214Z,25.28
2022-08-14T00:14:22.563Z,25.25
2022-08-14T00:15:22.779Z,25.22
2022-08-14T00:16:40.958Z,25.19
2022-08-14T00:17:24.412Z,25.16
2022-08-14T00:19:05.346Z,25.20
2022-08-14T00:19:24.962Z,25.19
2022-08-14T00:20:30.522Z,25.16
2022-08-14T00:21:30.997Z,25.16
2022-08-14T00:22:44.575Z,25.15
2022-08-14T00:23:26.243Z,25.15
2022-08-14T00:24:29.086Z,25.13
2022-08-14T00:25:30.585Z,25.15
2022-08-14T00:26:27.086Z,25.13
2022-08-14T00:27:26.431Z,25.15
2022-08-14T00:28:29.034Z,25.13
2022-08-14T00:29:28.074Z,25.13
2022-08-14T00:30:27.391Z,25.13
2022-08-14T00:31:34.885Z,25.12
2022-08-14T00:32:52.858Z,25.15
2022-08-14T00:33:39.264Z,25.16
2022-08-14T00:34:36.830Z,25.12
2022-08-14T00:35:35.736Z,25.10
2022-08-14T00:36:34.912Z,25.06
2022-08-14T00:37:30.532Z,25.06
2022-08-14T00:38:29.829Z,25.06
2022-08-14T00:39:30.201Z,25.07
2022-08-14T00:40:35.382Z,25.10
2022-08-14T00:41:31.703Z,25.07
2022-08-14T00:42:54.920Z,25.12
2022-08-14T00:43:32.723Z,25.02
2022-08-14T00:44:32.679Z,25.07
2022-08-14T00:45:31.856Z,25.07
2022-08-14T00:46:33.047Z,25.07
2022-08-14T00:47:32.417Z,25.10
2022-08-14T00:48:34.398Z,25.12
2022-08-14T00:49:38.155Z,25.10
2022-08-14T00:50:34.342Z,25.10
2022-08-14T00:51:34.442Z,25.12
2022-08-14T00:52:33.880Z,25.09
2022-08-14T00:53:34.128Z,25.12
2022-08-14T00:54:34.447Z,25.17
2022-08-14T00:55:35.938Z,25.13
2022-08-14T00:56:35.045Z,25.16
2022-08-14T00:57:35.352Z,25.16
2022-08-14T00:58:35.593Z,25.17
2022-08-14T00:59:36.038Z,25.24
2022-08-14T01:00:37.336Z,25.20
2022-08-14T01:01:37.525Z,25.20
2022-08-14T01:02:36.745Z,25.24
2022-08-14T01:03:37.010Z,25.25
2022-08-14T01:04:53.974Z,25.25
2022-08-14T01:05:41.908Z,25.30
2022-08-14T01:06:38.898Z,25.25
2022-08-14T01:07:38.930Z,25.24
2022-08-14T01:08:51.335Z,25.27
2022-08-14T01:09:39.878Z,25.28
2022-08-14T01:10:40.286Z,25.28
2022-08-14T01:11:39.529Z,25.32
2022-08-14T01:12:40.855Z,25.34
2022-08-14T01:13:43.017Z,25.31
2022-08-14T01:14:40.764Z,25.25
2022-08-14T01:15:57.673Z,25.27
2022-08-14T01:16:41.815Z,25.27
2022-08-14T01:17:45.739Z,25.28
2022-08-14T01:18:42.404Z,25.28
2022-08-14T01:19:43.389Z,25.27
2022-08-14T01:20:41.994Z,25.27
2022-08-14T01:21:46.855Z,25.27
2022-08-14T01:22:43.958Z,25.19
2022-08-14T01:23:46.937Z,25.17
2022-08-14T01:24:43.573Z,25.09
2022-08-14T01:25:43.559Z,25.01
2022-08-14T01:26:43.828Z,24.94
2022-08-14T01:27:57.056Z,24.91
2022-08-14T01:28:56.116Z,24.82
2022-08-14T01:30:03.380Z,24.79
2022-08-14T01:30:45.941Z,24.75
2022-08-14T01:31:45.245Z,24.67
2022-08-14T01:32:51.113Z,24.64
2022-08-14T01:34:07.359Z,24.61
2022-08-14T01:35:18.573Z,24.56
2022-08-14T01:36:05.480Z,24.56
2022-08-14T01:36:47.677Z,24.53
2022-08-14T01:37:54.772Z,24.53
2022-08-14T01:38:48.958Z,24.56
2022-08-14T01:39:47.597Z,24.53
2022-08-14T01:40:48.873Z,24.54
2022-08-14T01:41:48.061Z,24.54
2022-08-14T01:42:48.437Z,24.59
2022-08-14T01:43:56.336Z,24.54
2022-08-14T01:44:50.011Z,24.56
2022-08-14T01:45:57.837Z,24.53
2022-08-14T01:47:00.963Z,24.50
2022-08-14T01:47:50.781Z,24.49
2022-08-14T01:48:50.108Z,24.49
2022-08-14T01:50:01.248Z,24.49
2022-08-14T01:50:51.671Z,24.47
2022-08-14T01:51:50.986Z,24.45
2022-08-14T01:52:59.327Z,24.47
2022-08-14T01:53:55.391Z,24.45
2022-08-14T01:54:58.343Z,24.45
2022-08-14T01:55:53.156Z,24.42
2022-08-14T01:56:55.618Z,24.39
2022-08-14T01:58:02.038Z,24.41
2022-08-14T01:58:57.394Z,24.42
2022-08-14T01:59:53.336Z,24.38
2022-08-14T02:00:53.591Z,24.34
2022-08-14T02:01:58.096Z,24.32
2022-08-14T02:02:55.182Z,24.27
2022-08-14T02:03:57.149Z,24.26
2022-08-14T02:04:57.626Z,24.27
2022-08-14T02:05:55.008Z,24.31
2022-08-14T02:06:55.274Z,24.23
2022-08-14T02:08:08.976Z,24.24
2022-08-14T02:08:56.873Z,24.23
2022-08-14T02:09:56.241Z,24.22
2022-08-14T02:10:56.368Z,24.19
2022-08-14T02:11:56.640Z,24.17
2022-08-14T02:12:57.656Z,24.14
2022-08-14T02:13:57.207Z,24.14
2022-08-14T02:15:00.561Z,24.17
2022-08-14T02:15:57.729Z,24.12
2022-08-14T02:16:57.995Z,24.07
2022-08-14T02:17:58.300Z,24.04
2022-08-14T02:18:58.581Z,23.97
2022-08-14T02:19:58.918Z,23.90
2022-08-14T02:20:59.212Z,23.90
2022-08-14T02:22:03.019Z,23.86
2022-08-14T02:22:59.728Z,23.87
2022-08-14T02:24:00.117Z,23.90
2022-08-14T02:25:00.338Z,23.89
2022-08-14T02:26:00.683Z,23.90
2022-08-14T02:28:22.754Z,23.89
2022-08-14T02:28:24.309Z,23.86
2022-08-14T02:29:03.584Z,23.87
2022-08-14T02:30:02.932Z,23.82
2022-08-14T02:31:02.196Z,23.76
2022-08-14T02:32:02.535Z,23.68
2022-08-14T02:33:02.838Z,23.68
2022-08-14T02:34:03.130Z,23.62
2022-08-14T02:35:04.425Z,23.58
2022-08-14T02:36:05.258Z,23.57
2022-08-14T02:37:06.892Z,23.50
2022-08-14T02:38:04.299Z,23.43
2022-08-14T02:39:04.574Z,23.38
2022-08-14T02:40:05.424Z,23.31
2022-08-14T02:41:09.024Z,23.24
2022-08-14T02:42:06.553Z,23.20
2022-08-14T02:43:07.973Z,23.15
2022-08-14T02:44:06.979Z,23.15
2022-08-14T02:45:06.434Z,23.15
2022-08-14T02:46:06.731Z,23.12
2022-08-14T02:47:07.273Z,23.11
2022-08-14T02:48:10.369Z,23.09
2022-08-14T02:49:08.686Z,23.07
2022-08-14T02:50:08.077Z,23.05
2022-08-14T02:51:09.185Z,23.01
2022-08-14T02:52:16.035Z,22.99
2022-08-14T02:53:09.786Z,22.97
2022-08-14T02:54:09.215Z,22.97
2022-08-14T02:55:09.392Z,22.97
2022-08-14T02:56:30.144Z,22.94
2022-08-14T02:57:16.202Z,22.96
2022-08-14T02:58:11.355Z,22.87
2022-08-14T02:59:11.540Z,22.86
2022-08-14T03:00:10.905Z,22.86
2022-08-14T03:01:11.141Z,22.82
2022-08-14T03:02:33.353Z,22.82
2022-08-14T03:03:12.681Z,22.82
2022-08-14T03:04:12.050Z,22.78
2022-08-14T03:05:12.275Z,22.71
2022-08-14T03:06:12.532Z,22.77
2022-08-14T03:07:14.219Z,22.72
2022-08-14T03:08:15.397Z,22.78
2022-08-14T03:09:13.525Z,22.75
2022-08-14T03:10:27.106Z,22.78
2022-08-14T03:11:15.147Z,22.78
2022-08-14T03:12:26.870Z,22.75
2022-08-14T03:13:20.782Z,22.74
2022-08-14T03:14:18.068Z,22.74
2022-08-14T03:15:16.578Z,22.68
2022-08-14T03:16:20.366Z,22.67
2022-08-14T03:17:17.434Z,22.64
2022-08-14T03:18:18.532Z,22.60
2022-08-14T03:19:16.631Z,22.65
2022-08-14T03:20:16.919Z,22.59
2022-08-14T03:21:17.246Z,22.62
2022-08-14T03:22:17.989Z,22.60
2022-08-14T03:23:17.756Z,22.60
2022-08-14T03:24:22.860Z,22.56
2022-08-14T03:25:19.388Z,22.54
2022-08-14T03:26:30.134Z,22.56
2022-08-14T03:27:19.911Z,22.54
2022-08-14T03:28:29.551Z,22.56
2022-08-14T03:29:20.586Z,22.54
2022-08-14T03:30:23.384Z,22.54
2022-08-14T03:31:20.093Z,22.54
2022-08-14T03:32:20.356Z,22.54
2022-08-14T03:33:21.694Z,22.56
2022-08-14T03:34:24.414Z,22.56
2022-08-14T03:35:22.290Z,22.56
2022-08-14T03:37:51.841Z,22.59
2022-08-14T03:37:52.042Z,22.59
2022-08-14T03:39:15.720Z,22.65
2022-08-14T03:39:24.163Z,22.64
2022-08-14T03:40:22.744Z,22.64
2022-08-14T03:41:23.515Z,22.65
2022-08-14T03:42:23.255Z,22.68
2022-08-14T03:43:23.530Z,22.64
2022-08-14T03:45:18.632Z,22.64
2022-08-14T03:45:34.912Z,22.56
2022-08-14T03:46:52.876Z,22.57
2022-08-14T03:47:46.600Z,22.56
2022-08-14T03:48:31.287Z,22.56
2022-08-14T03:49:29.374Z,22.57
2022-08-14T03:50:30.751Z,22.54
2022-08-14T03:51:26.781Z,22.54
2022-08-14T03:52:38.412Z,22.53
2022-08-14T03:53:27.392Z,22.53
2022-08-14T03:54:26.655Z,22.53
2022-08-14T03:55:27.067Z,22.53
2022-08-14T03:56:27.332Z,22.54
2022-08-14T03:57:27.597Z,22.56
2022-08-14T03:58:36.138Z,22.54
2022-08-14T03:59:29.069Z,22.56
2022-08-14T04:00:43.317Z,22.54
2022-08-14T04:01:39.165Z,22.56
2022-08-14T04:02:32.669Z,22.57
2022-08-14T04:03:30.250Z,22.54
2022-08-14T04:04:29.543Z,22.49
2022-08-14T04:05:29.889Z,22.46
2022-08-14T04:06:31.723Z,22.46
2022-08-14T04:07:32.895Z,22.44
2022-08-14T04:08:31.995Z,22.43
2022-08-14T04:09:30.918Z,22.39
2022-08-14T04:10:32.153Z,22.38
2022-08-14T04:11:31.554Z,22.35
2022-08-14T04:12:31.902Z,22.34
2022-08-14T04:13:34.004Z,22.37
2022-08-14T04:14:32.410Z,22.34
2022-08-14T04:15:56.592Z,22.37
2022-08-14T04:16:34.039Z,22.38
2022-08-14T04:17:33.323Z,22.41
2022-08-14T04:18:33.713Z,22.39
2022-08-14T04:19:36.488Z,22.41
2022-08-14T04:20:34.144Z,22.38
2022-08-14T04:21:39.755Z,22.37
2022-08-14T04:22:35.740Z,22.35
2022-08-14T04:23:35.038Z,22.32
2022-08-14T04:24:37.746Z,22.31
2022-08-14T04:25:35.606Z,22.31
2022-08-14T04:26:43.270Z,22.32
2022-08-14T04:28:01.706Z,22.32
2022-08-14T04:29:06.767Z,22.34
2022-08-14T04:29:37.740Z,22.32
2022-08-14T04:30:37.075Z,22.31
2022-08-14T04:32:58.926Z,22.29
2022-08-14T04:33:10.369Z,22.34
2022-08-14T04:33:38.952Z,22.32
2022-08-14T04:34:38.149Z,22.34
2022-08-14T04:35:56.197Z,22.35
2022-08-14T04:36:39.816Z,22.35
2022-08-14T04:37:39.043Z,22.38
2022-08-14T04:38:39.879Z,22.38
2022-08-14T04:39:41.829Z,22.43
2022-08-14T04:40:40.901Z,22.43
2022-08-14T04:41:40.221Z,22.43
2022-08-14T04:42:40.503Z,22.41
2022-08-14T04:43:41.738Z,22.43
2022-08-14T04:44:40.971Z,22.38
2022-08-14T04:45:41.280Z,22.39
2022-08-14T04:46:56.987Z,22.39
2022-08-14T04:47:46.382Z,22.35
2022-08-14T04:48:43.744Z,22.38
2022-08-14T04:49:46.738Z,22.38
2022-08-14T04:50:44.399Z,22.38
2022-08-14T04:51:46.617Z,22.38
2022-08-14T04:52:44.274Z,22.37
2022-08-14T04:53:43.812Z,22.37
2022-08-14T04:54:43.805Z,22.32
2022-08-14T04:55:44.103Z,22.32
2022-08-14T04:56:44.360Z,22.25
2022-08-14T04:57:44.608Z,22.28
2022-08-14T04:58:44.931Z,22.27
2022-08-14T04:59:45.239Z,22.19
2022-08-14T05:00:45.505Z,22.17
2022-08-14T05:01:48.819Z,22.13
2022-08-14T05:02:46.400Z,22.12
2022-08-14T05:03:46.368Z,22.12
2022-08-14T05:04:58.451Z,22.10
2022-08-14T05:05:47.951Z,22.09
2022-08-14T05:06:47.164Z,22.10
2022-08-14T05:08:01.082Z,22.10
2022-08-14T05:08:59.814Z,22.12
2022-08-14T05:09:50.041Z,22.12
2022-08-14T05:10:48.286Z,22.10
2022-08-14T05:11:48.627Z,22.16
2022-08-14T05:13:14.009Z,22.17
2022-08-14T05:14:54.595Z,22.17
2022-08-14T05:15:49.776Z,22.19
2022-08-14T05:16:50.077Z,22.22
2022-08-14T05:17:58.619Z,22.23
2022-08-14T05:19:17.632Z,22.19
2022-08-14T05:21:04.878Z,22.19
2022-08-14T05:21:54.945Z,22.19
2022-08-14T05:21:57.351Z,22.22
2022-08-14T05:22:56.153Z,22.20
2022-08-14T05:23:51.975Z,22.22
2022-08-14T05:24:52.317Z,22.25
2022-08-14T05:25:52.653Z,22.27
2022-08-14T05:26:53.265Z,22.27
2022-08-14T05:27:53.099Z,22.28
2022-08-14T05:28:53.425Z,22.29
2022-08-14T05:29:55.363Z,22.32
2022-08-14T05:30:53.963Z,22.34
2022-08-14T05:31:57.197Z,22.38
2022-08-14T05:32:54.490Z,22.44
2022-08-14T05:33:56.770Z,22.49
2022-08-14T05:34:55.084Z,22.52
2022-08-14T05:35:55.383Z,22.57
2022-08-14T05:37:01.944Z,22.62
2022-08-14T05:37:56.864Z,22.60
2022-08-14T05:38:56.137Z,22.64
2022-08-14T05:39:56.535Z,22.67
2022-08-14T05:40:56.869Z,22.68
2022-08-14T05:41:57.066Z,22.65
2022-08-14T05:42:57.368Z,22.65
2022-08-14T05:43:57.642Z,22.68
2022-08-14T05:44:57.988Z,22.72
2022-08-14T05:45:58.196Z,22.75
2022-08-14T05:46:58.398Z,22.75
2022-08-14T05:47:58.736Z,22.77
2022-08-14T05:48:58.883Z,22.75
2022-08-14T05:49:59.098Z,22.80
2022-08-14T05:50:59.345Z,22.78
2022-08-14T05:51:59.628Z,22.78
2022-08-14T05:52:59.884Z,22.84
2022-08-14T05:54:13.896Z,22.84
2022-08-14T05:55:01.397Z,22.84
2022-08-14T05:56:00.633Z,22.83
2022-08-14T05:57:00.889Z,22.82
2022-08-14T05:58:01.183Z,22.83
2022-08-14T05:59:01.471Z,22.77
2022-08-14T06:00:01.722Z,22.75
2022-08-14T06:01:01.970Z,22.77
2022-08-14T06:02:02.259Z,22.75
2022-08-14T06:03:06.770Z,22.83
2022-08-14T06:04:04.614Z,22.84
2022-08-14T06:05:03.114Z,22.86
2022-08-14T06:06:03.303Z,22.87
2022-08-14T06:07:03.540Z,22.84
2022-08-14T06:08:08.745Z,22.87
2022-08-14T06:09:05.093Z,22.87
2022-08-14T06:10:04.433Z,22.90
2022-08-14T06:11:04.638Z,22.92
2022-08-14T06:12:04.911Z,22.97
2022-08-14T06:13:05.118Z,23.01
2022-08-14T06:14:12.276Z,22.99
2022-08-14T06:15:07.998Z,23.05
2022-08-14T06:16:05.878Z,23.07
2022-08-14T06:17:06.107Z,23.11
2022-08-14T06:18:06.419Z,23.12
2022-08-14T06:19:06.939Z,23.08
2022-08-14T06:20:06.874Z,23.14
2022-08-14T06:21:13.625Z,23.17
2022-08-14T06:22:08.410Z,23.19
2022-08-14T06:23:07.686Z,23.17
2022-08-14T06:24:10.371Z,23.17
2022-08-14T06:25:09.199Z,23.20
2022-08-14T06:26:08.432Z,23.22
2022-08-14T06:27:10.087Z,23.27
2022-08-14T06:28:27.314Z,23.29
2022-08-14T06:29:10.309Z,23.27
2022-08-14T06:30:09.569Z,23.39
2022-08-14T06:31:09.916Z,23.43
2022-08-14T06:32:37.418Z,23.46
2022-08-14T06:33:11.465Z,23.47
2022-08-14T06:35:11.806Z,23.50
2022-08-14T06:35:13.674Z,23.52
2022-08-14T06:36:11.538Z,23.53
2022-08-14T06:37:11.758Z,23.55
2022-08-14T06:38:16.730Z,23.58
2022-08-14T06:39:13.213Z,23.64
2022-08-14T06:40:25.715Z,23.67
2022-08-14T06:41:13.827Z,23.67
2022-08-14T06:42:18.340Z,23.67
2022-08-14T06:43:15.446Z,23.72
2022-08-14T06:44:13.590Z,23.70
2022-08-14T06:45:13.941Z,23.76
2022-08-14T06:46:23.181Z,23.75
2022-08-14T06:47:15.521Z,23.83
2022-08-14T06:48:14.810Z,23.86
2022-08-14T06:49:15.126Z,23.89
2022-08-14T06:50:15.344Z,23.92
2022-08-14T06:51:15.609Z,23.95
2022-08-14T06:52:16.436Z,24.04
2022-08-14T06:53:16.178Z,24.08
2022-08-14T06:54:16.439Z,24.14
2022-08-14T06:55:16.694Z,24.16
2022-08-14T06:56:16.966Z,24.19
2022-08-14T06:57:17.250Z,24.22
2022-08-14T06:58:28.473Z,24.23
2022-08-14T06:59:19.908Z,24.27
2022-08-14T07:00:22.438Z,24.31
2022-08-14T07:01:26.801Z,24.35
2022-08-14T07:02:19.480Z,24.39
2022-08-14T07:03:19.433Z,24.41
2022-08-14T07:04:23.777Z,24.44
2022-08-14T07:05:23.103Z,24.42
2022-08-14T07:06:21.577Z,24.37
2022-08-14T07:07:20.817Z,24.37
2022-08-14T07:08:20.163Z,24.34
2022-08-14T07:09:22.586Z,24.42
2022-08-14T07:10:20.686Z,24.47
2022-08-14T07:11:21.074Z,24.35
2022-08-14T07:12:54.694Z,24.29
2022-08-14T07:13:22.606Z,24.34
2022-08-14T07:14:21.937Z,24.44
2022-08-14T07:15:22.145Z,24.45
2022-08-14T07:16:22.372Z,24.52
2022-08-14T07:17:23.628Z,24.54
2022-08-14T07:18:22.945Z,24.59
2022-08-14T07:19:23.187Z,24.63
2022-08-14T07:20:30.520Z,24.63
2022-08-14T07:21:24.681Z,24.71
2022-08-14T07:22:23.883Z,24.75
2022-08-14T07:23:25.368Z,24.77
2022-08-14T07:24:31.053Z,24.85
2022-08-14T07:25:32.371Z,24.91
2022-08-14T07:26:26.047Z,24.92
2022-08-14T07:27:25.364Z,25.02
2022-08-14T07:28:25.725Z,25.02
2022-08-14T07:29:26.479Z,25.09
2022-08-14T07:30:34.424Z,25.10
2022-08-14T07:31:27.560Z,25.13
2022-08-14T07:32:34.196Z,25.16
2022-08-14T07:33:29.942Z,25.22
2022-08-14T07:34:40.755Z,25.25
2022-08-14T07:35:30.456Z,25.35
2022-08-14T07:36:30.628Z,25.39
2022-08-14T07:37:28.185Z,25.44
2022-08-14T07:38:33.712Z,25.47
2022-08-14T07:39:29.739Z,25.47
2022-08-14T07:40:29.804Z,25.53
2022-08-14T07:41:33.417Z,25.61
2022-08-14T07:42:30.625Z,25.68
2022-08-14T07:43:29.863Z,25.72
2022-08-14T07:44:35.797Z,25.72
2022-08-14T07:45:31.917Z,25.75
2022-08-14T07:46:30.941Z,25.82
2022-08-14T07:47:31.065Z,25.89
2022-08-14T07:48:31.325Z,25.98
2022-08-14T07:49:31.572Z,25.97
2022-08-14T07:50:34.746Z,25.98
2022-08-14T07:51:36.593Z,25.99
2022-08-14T07:52:32.474Z,26.01
2022-08-14T07:53:36.498Z,26.01
2022-08-14T07:54:34.037Z,26.01
2022-08-14T07:55:33.273Z,26.08
2022-08-14T07:56:47.063Z,26.15
2022-08-14T07:57:34.881Z,26.18
2022-08-14T07:58:38.747Z,26.17
2022-08-14T07:59:42.664Z,26.17
2022-08-14T08:00:35.651Z,26.17
2022-08-14T08:01:34.939Z,26.15
2022-08-14T08:02:35.202Z,26.20
2022-08-14T08:03:36.441Z,26.31
2022-08-14T08:04:35.692Z,26.39
2022-08-14T08:05:36.152Z,26.47
2022-08-14T08:06:36.248Z,26.55
2022-08-14T08:07:39.184Z,26.64
2022-08-14T08:08:36.728Z,26.68
2022-08-14T08:09:37.042Z,26.73
2022-08-14T08:10:57.243Z,26.81
2022-08-14T08:11:38.647Z,26.83
2022-08-14T08:12:37.960Z,26.91
2022-08-14T08:13:39.406Z,26.98
2022-08-14T08:14:55.762Z,27.01
2022-08-14T08:15:39.953Z,27.01
2022-08-14T08:16:39.212Z,27.20
2022-08-14T08:17:42.505Z,27.33
2022-08-14T08:18:39.691Z,27.48
2022-08-14T08:19:39.941Z,27.66
2022-08-14T08:20:40.180Z,27.77
2022-08-14T08:21:43.828Z,27.98
2022-08-14T08:22:40.740Z,28.16
2022-08-14T08:23:50.882Z,28.40
2022-08-14T08:24:42.352Z,28.53
2022-08-14T08:25:41.639Z,28.59
2022-08-14T08:26:41.911Z,28.70
2022-08-14T08:27:44.848Z,28.90
2022-08-14T08:28:43.908Z,28.87
2022-08-14T08:29:42.769Z,29.13
2022-08-14T08:30:49.231Z,29.07
2022-08-14T08:31:48.792Z,28.97
2022-08-14T08:32:44.618Z,29.16
2022-08-14T08:33:49.405Z,29.56
2022-08-14T08:34:45.068Z,30.21
2022-08-14T08:35:47.252Z,30.59
2022-08-14T08:36:46.648Z,31.02
2022-08-14T08:37:44.994Z,31.58
2022-08-14T08:39:17.567Z,32.02
2022-08-14T08:40:03.305Z,32.36
2022-08-14T08:40:46.906Z,32.55
2022-08-14T08:41:46.167Z,32.81
2022-08-14T08:42:46.488Z,33.20
2022-08-14T08:43:47.669Z,33.39
2022-08-14T08:44:46.909Z,33.53
2022-08-14T08:45:47.226Z,33.80
2022-08-14T08:46:48.032Z,34.00
2022-08-14T08:47:47.712Z,34.26
2022-08-14T08:48:53.929Z,34.31
2022-08-14T08:49:59.015Z,34.60
2022-08-14T08:50:49.528Z,34.50
2022-08-14T08:51:48.831Z,33.90
2022-08-14T08:52:51.299Z,34.26
2022-08-14T08:53:49.365Z,34.72
2022-08-14T08:54:49.661Z,35.11
2022-08-14T08:55:49.952Z,35.44
2022-08-14T08:56:50.237Z,35.73
2022-08-14T08:57:50.552Z,35.81
2022-08-14T08:58:50.792Z,36.14
2022-08-14T08:59:55.045Z,36.08
2022-08-14T09:00:54.398Z,36.30
2022-08-14T09:01:56.187Z,36.49
2022-08-14T09:02:51.968Z,36.57
2022-08-14T09:03:52.333Z,36.39
2022-08-14T09:04:53.884Z,36.24
2022-08-14T09:05:54.051Z,36.42
2022-08-14T09:07:00.184Z,36.48
2022-08-14T09:07:56.460Z,36.64
2022-08-14T09:08:53.842Z,36.70
2022-08-14T09:09:58.954Z,36.80
2022-08-14T09:10:56.445Z,36.80
2022-08-14T09:11:54.774Z,36.60
2022-08-14T09:12:55.070Z,36.86
2022-08-14T09:13:55.335Z,37.10
2022-08-14T09:14:55.605Z,36.91
2022-08-14T09:15:55.825Z,37.05
2022-08-14T09:16:56.215Z,37.36
2022-08-14T09:17:56.530Z,37.68
2022-08-14T09:18:56.713Z,37.98
2022-08-14T09:19:56.962Z,38.30
2022-08-14T09:20:58.822Z,38.14
2022-08-14T09:21:57.623Z,37.99
2022-08-14T09:22:57.846Z,36.52
2022-08-14T09:24:28.640Z,36.33
2022-08-14T09:24:59.363Z,36.43
2022-08-14T09:26:00.422Z,36.87
2022-08-14T09:26:58.875Z,37.39
2022-08-14T09:27:59.210Z,37.58
2022-08-14T09:28:59.437Z,37.93
2022-08-14T09:29:59.666Z,37.89
2022-08-14T09:31:00.010Z,37.66
2022-08-14T09:32:01.231Z,37.66
2022-08-14T09:33:00.650Z,37.17
2022-08-14T09:34:00.851Z,36.67
2022-08-14T09:35:02.077Z,36.73
2022-08-14T09:36:01.356Z,37.13
2022-08-14T09:37:01.603Z,37.54
2022-08-14T09:38:01.875Z,37.78
2022-08-14T09:39:02.136Z,37.54
2022-08-14T09:40:02.756Z,36.94
2022-08-14T09:41:02.669Z,36.90
2022-08-14T09:42:20.692Z,36.46
2022-08-14T09:43:04.214Z,36.21
2022-08-14T09:44:05.235Z,36.75
2022-08-14T09:45:07.894Z,37.09
2022-08-14T09:46:05.089Z,37.21
2022-08-14T09:47:04.322Z,37.33
2022-08-14T09:48:04.581Z,37.09
2022-08-14T09:49:04.896Z,37.51
2022-08-14T09:50:05.092Z,38.07
2022-08-14T09:51:44.902Z,38.11
2022-08-14T09:52:46.321Z,38.12
2022-08-14T09:54:18.610Z,38.29
2022-08-14T09:54:42.968Z,37.92
2022-08-14T09:55:42.503Z,36.49
2022-08-14T09:56:42.626Z,35.86
2022-08-14T09:57:42.915Z,36.27
2022-08-14T09:58:43.193Z,36.92
2022-08-14T09:59:43.460Z,37.38
2022-08-14T10:00:43.712Z,37.96
2022-08-14T10:01:44.044Z,38.32
2022-08-14T10:02:46.174Z,38.73
2022-08-14T10:03:44.670Z,38.99
2022-08-14T10:04:45.179Z,38.95
2022-08-14T10:05:45.139Z,39.25
2022-08-14T10:06:45.416Z,39.06
2022-08-14T10:07:47.638Z,38.20
2022-08-14T10:08:50.967Z,38.07
2022-08-14T10:09:57.711Z,38.20
2022-08-14T10:10:57.034Z,38.23
2022-08-14T10:11:47.835Z,38.10
2022-08-14T10:12:48.094Z,37.67
2022-08-14T10:13:53.181Z,38.05
2022-08-14T10:14:53.074Z,38.46
2022-08-14T10:15:48.898Z,38.82
2022-08-14T10:16:48.214Z,39.05
2022-08-14T10:17:48.467Z,39.43
2022-08-14T10:18:48.719Z,39.51
2022-08-14T10:19:48.951Z,39.42
2022-08-14T10:20:49.994Z,39.54
2022-08-14T10:23:13.512Z,39.83
2022-08-14T10:23:14.763Z,39.58
2022-08-14T10:23:51.160Z,39.67
2022-08-14T10:24:51.020Z,39.56
2022-08-14T10:25:50.889Z,39.46
2022-08-14T10:26:50.998Z,39.52
2022-08-14T10:27:57.013Z,39.52
2022-08-14T10:29:18.315Z,39.51
2022-08-14T10:29:52.963Z,39.47
2022-08-14T10:30:52.165Z,39.69
2022-08-14T10:31:52.395Z,40.05
2022-08-14T10:32:52.755Z,40.05
2022-08-14T10:33:53.062Z,40.21
2022-08-14T10:34:53.352Z,40.12
2022-08-14T10:35:53.598Z,40.36
2022-08-14T10:37:02.125Z,40.66
2022-08-14T10:37:55.081Z,40.53
2022-08-14T10:38:54.325Z,40.02
2022-08-14T10:40:05.860Z,39.36
2022-08-14T10:40:59.134Z,39.24
2022-08-14T10:41:55.213Z,39.62
2022-08-14T10:42:55.471Z,39.74
2022-08-14T10:43:55.721Z,39.99
2022-08-14T10:44:55.975Z,39.86
2022-08-14T10:46:04.014Z,39.62
2022-08-14T10:47:41.685Z,39.86
2022-08-14T10:48:08.723Z,40.07
2022-08-14T10:48:58.219Z,39.84
2022-08-14T10:49:57.464Z,39.51
2022-08-14T10:50:57.674Z,39.76
2022-08-14T10:51:58.060Z,39.56
2022-08-14T10:52:58.296Z,38.86
2022-08-14T10:53:58.586Z,38.41
2022-08-14T10:54:58.846Z,38.05
2022-08-14T10:55:59.106Z,37.61
2022-08-14T10:56:59.339Z,38.17
2022-08-14T10:57:59.643Z,38.53
2022-08-14T10:58:59.921Z,38.68
2022-08-14T11:00:00.201Z,38.67
2022-08-14T11:01:00.416Z,38.73
2022-08-14T11:02:00.792Z,38.87
2022-08-14T11:03:01.598Z,39.09
2022-08-14T11:04:01.324Z,39.20
2022-08-14T11:05:04.974Z,39.35
2022-08-14T11:06:01.896Z,39.73
2022-08-14T11:07:02.223Z,39.55
2022-08-14T11:08:02.487Z,39.73
2022-08-14T11:09:03.717Z,39.93
2022-08-14T11:10:03.041Z,40.04
2022-08-14T11:11:03.347Z,40.29
2022-08-14T11:12:33.845Z,40.46
2022-08-14T11:13:04.918Z,40.80
2022-08-14T11:14:04.221Z,40.34
2022-08-14T11:15:04.469Z,40.27
2022-08-14T11:16:04.754Z,40.17
2022-08-14T11:17:04.992Z,39.37
2022-08-14T11:18:05.239Z,39.36
2022-08-14T11:19:05.563Z,39.35
2022-08-14T11:20:05.792Z,39.64
2022-08-14T11:21:06.052Z,39.44
2022-08-14T11:22:06.527Z,39.59
2022-08-14T11:23:08.693Z,39.36
2022-08-14T11:24:50.835Z,39.25
2022-08-14T11:25:08.231Z,39.36
2022-08-14T11:26:07.479Z,39.58
2022-08-14T11:27:07.807Z,39.59
2022-08-14T11:28:11.068Z,39.74
2022-08-14T11:29:09.281Z,40.08
2022-08-14T11:30:50.560Z,40.72
2022-08-14T11:31:09.831Z,40.84
2022-08-14T11:32:09.098Z,40.87
2022-08-14T11:33:09.421Z,40.27
2022-08-14T11:34:29.822Z,40.14
2022-08-14T11:35:11.038Z,40.17
2022-08-14T11:36:18.176Z,40.59
2022-08-14T11:37:19.343Z,40.52
2022-08-14T11:38:11.867Z,40.79
2022-08-14T11:39:11.216Z,40.76
2022-08-14T11:40:11.396Z,40.21
2022-08-14T11:41:11.675Z,39.76
2022-08-14T11:43:07.845Z,39.37
2022-08-14T11:43:14.693Z,39.51
2022-08-14T11:44:13.115Z,38.79
2022-08-14T11:45:18.566Z,38.46
2022-08-14T11:46:17.722Z,37.92
2022-08-14T11:47:14.348Z,38.14
2022-08-14T11:49:01.877Z,38.57
2022-08-14T11:49:18.873Z,38.76
2022-08-14T11:50:15.293Z,38.82
2022-08-14T11:51:16.439Z,38.53
2022-08-14T11:52:14.928Z,37.95
2022-08-14T11:53:15.203Z,38.33
2022-08-14T11:54:15.409Z,38.76
2022-08-14T11:55:15.644Z,38.68
2022-08-14T11:56:15.883Z,38.79
2022-08-14T11:57:16.218Z,38.39
2022-08-14T11:58:24.178Z,38.07
2022-08-14T11:59:17.771Z,37.67
2022-08-14T12:00:19.767Z,37.39
2022-08-14T12:01:17.327Z,36.76
2022-08-14T12:03:00.660Z,36.61
2022-08-14T12:03:37.622Z,35.70
2022-08-14T12:04:32.227Z,35.08
2022-08-14T12:05:19.419Z,34.81
2022-08-14T12:06:29.593Z,34.83
2022-08-14T12:07:19.970Z,34.99
2022-08-14T12:08:24.614Z,35.21
2022-08-14T12:09:20.466Z,35.13
2022-08-14T12:10:26.199Z,34.99
2022-08-14T12:11:20.983Z,34.76
2022-08-14T12:12:36.178Z,33.89
2022-08-14T12:13:22.367Z,33.85
2022-08-14T12:14:34.586Z,34.07
2022-08-14T12:15:21.981Z,34.24
2022-08-14T12:16:22.811Z,34.39
2022-08-14T12:17:23.882Z,34.45
2022-08-14T12:18:21.796Z,34.36
2022-08-14T12:19:22.081Z,34.22
2022-08-14T12:20:30.117Z,34.02
2022-08-14T12:21:23.653Z,33.89
2022-08-14T12:22:29.734Z,33.73
2022-08-14T12:23:24.820Z,33.53
2022-08-14T12:24:35.958Z,33.60
2022-08-14T12:25:25.226Z,33.68
2022-08-14T12:26:39.883Z,33.73
2022-08-14T12:27:25.376Z,33.79
2022-08-14T12:28:33.444Z,33.90
2022-08-14T12:29:25.854Z,33.98
2022-08-14T12:30:25.107Z,34.08
2022-08-14T12:31:25.396Z,34.09
2022-08-14T12:32:25.661Z,33.82
2022-08-14T12:33:27.142Z,33.89
2022-08-14T12:34:27.134Z,33.85
2022-08-14T12:35:26.481Z,33.94
2022-08-14T12:36:26.735Z,34.05
2022-08-14T12:37:27.016Z,34.16
2022-08-14T12:38:27.282Z,34.26
2022-08-14T12:39:27.533Z,34.34
2022-08-14T12:40:27.739Z,34.41
2022-08-14T12:41:34.480Z,34.46
2022-08-14T12:42:34.840Z,34.48
2022-08-14T12:43:29.635Z,34.23
2022-08-14T12:44:29.427Z,34.13
2022-08-14T12:45:29.263Z,33.87
2022-08-14T12:46:29.698Z,33.52
2022-08-14T12:47:29.862Z,33.48
2022-08-14T12:48:31.823Z,33.53
2022-08-14T12:49:30.892Z,33.61
2022-08-14T12:50:30.795Z,33.65
2022-08-14T12:51:31.402Z,33.74
2022-08-14T12:52:43.197Z,33.71
2022-08-14T12:53:36.251Z,33.76
2022-08-14T12:54:33.124Z,33.64
2022-08-14T12:56:00.483Z,33.37
2022-08-14T12:56:34.572Z,33.34
2022-08-14T12:57:32.999Z,33.51